Time;durP1;ratioP1;P1;durP2;ratioP2;P2;SDS_P1;SDS_P2;PMS_P1;PMS_P2;Temp;Humidity;BMP_temperature;BMP_pressure;BME280_temperature;BME280_humidity;BME280_pressure;Samples;Min_cycle;Max_cycle;Signal;HPM_P1;HPM_P2
2023/06/18 00:01:02;;;;;;;10.02;4.50;;;;;;;;;;4990058;28;20694;-75
2023/06/18 00:03:28;;;;;;;7.72;5.38;;;;;;;;;;4997614;28;20031;-74
2023/06/18 00:05:54;;;;;;;6.30;4.85;;;;;;;;;;4991645;28;20500;-76
2023/06/18 00:08:21;;;;;;;5.75;4.53;;;;;;;;;;4988810;28;20102;-77
2023/06/18 00:10:47;;;;;;;6.80;4.93;;;;;;;;;;4994926;28;20420;-74
2023/06/18 00:13:13;;;;;;;7.75;4.93;;;;;;;;;;4991321;28;20041;-75
2023/06/18 00:15:39;;;;;;;7.80;5.00;;;;;;;;;;4993706;28;20066;-75
2023/06/18 00:18:05;;;;;;;5.43;4.70;;;;;;;;;;4992158;28;20032;-76
2023/06/18 00:20:32;;;;;;;5.22;4.35;;;;;;;;;;4986892;28;20925;-76
2023/06/18 00:23:01;;;;;;;6.97;4.72;;;;;;;;;;4996167;28;20026;-76
2023/06/18 00:25:27;;;;;;;7.75;5.25;;;;;;;;;;4995759;28;20038;-75
2023/06/18 00:27:53;;;;;;;7.05;4.88;;;;;;;;;;4995142;28;20447;-75
2023/06/18 00:30:19;;;;;;;6.55;5.18;;;;;;;;;;4990149;28;20033;-75
2023/06/18 00:32:45;;;;;;;8.30;5.30;;;;;;;;;;4993100;28;20030;-75
2023/06/18 00:35:14;;;;;;;6.63;5.35;;;;;;;;;;4991614;28;20050;-75
2023/06/18 00:37:44;;;;;;;6.45;5.30;;;;;;;;;;4993338;28;20881;-75
2023/06/18 00:40:12;;;;;;;7.03;5.85;;;;;;;;;;4989449;28;20037;-75
2023/06/18 00:42:39;;;;;;;8.13;5.90;;;;;;;;;;4995206;28;20040;-74
2023/06/18 00:45:09;;;;;;;9.07;6.15;;;;;;;;;;4991692;28;20412;-75
2023/06/18 00:47:44;;;;;;;7.22;5.90;;;;;;;;;;4992443;28;20058;-75
2023/06/18 00:50:16;;;;;;;8.77;6.63;;;;;;;;;;4998367;28;20030;-75
2023/06/18 00:52:44;;;;;;;8.50;6.50;;;;;;;;;;4990957;28;20034;-75
2023/06/18 00:55:12;;;;;;;7.85;6.90;;;;;;;;;;4990786;28;20065;-75
2023/06/18 00:57:37;;;;;;;9.50;7.30;;;;;;;;;;4990096;28;20036;-75
2023/06/18 01:00:11;;;;;;;9.30;5.97;;;;;;;;;;4986232;28;20393;-74
2023/06/18 01:02:37;;;;;;;8.30;6.75;;;;;;;;;;4994845;28;20117;-76
2023/06/18 01:05:05;;;;;;;9.60;7.13;;;;;;;;;;4994206;28;20038;-76
2023/06/18 01:07:33;;;;;;;7.80;6.50;;;;;;;;;;4992709;28;20042;-74
2023/06/18 01:09:58;;;;;;;7.93;6.90;;;;;;;;;;4992044;28;20014;-75
2023/06/18 01:12:27;;;;;;;7.95;6.60;;;;;;;;;;4991687;28;20540;-75
2023/06/18 01:14:55;;;;;;;10.05;7.30;;;;;;;;;;4985170;28;20065;-74
2023/06/18 01:17:22;;;;;;;7.78;6.60;;;;;;;;;;5004593;28;20034;-75
2023/06/18 01:19:58;;;;;;;7.65;6.28;;;;;;;;;;4983607;28;20033;-75
2023/06/18 01:22:37;;;;;;;8.02;6.60;;;;;;;;;;4992872;28;20463;-75
2023/06/18 01:25:05;;;;;;;8.68;6.80;;;;;;;;;;4989110;28;20033;-76
2023/06/18 01:27:40;;;;;;;8.85;7.30;;;;;;;;;;4990462;28;20115;-75
2023/06/18 01:30:08;;;;;;;8.38;6.20;;;;;;;;;;4984862;28;20027;-74
2023/06/18 01:32:37;;;;;;;8.77;6.65;;;;;;;;;;4990441;28;20028;-75
2023/06/18 01:35:08;;;;;;;7.63;6.72;;;;;;;;;;4996896;28;20038;-75
2023/06/18 01:37:59;;;;;;;7.88;6.75;;;;;;;;;;4991510;28;20386;-75
2023/06/18 01:40:37;;;;;;;7.88;6.68;;;;;;;;;;4988001;28;20053;-76
2023/06/18 01:43:33;;;;;;;7.85;6.35;;;;;;;;;;4993179;28;20034;-76
2023/06/18 01:46:08;;;;;;;11.10;7.05;;;;;;;;;;4990976;28;20404;-75
2023/06/18 01:48:41;;;;;;;8.73;6.80;;;;;;;;;;4986466;28;20064;-75
2023/06/18 01:51:11;;;;;;;8.52;7.22;;;;;;;;;;4991973;28;20034;-75
2023/06/18 01:53:38;;;;;;;9.25;6.57;;;;;;;;;;4991157;28;20035;-75
2023/06/18 01:56:09;;;;;;;10.07;7.38;;;;;;;;;;4988761;28;20501;-75
2023/06/18 01:58:36;;;;;;;9.82;6.75;;;;;;;;;;4991077;28;20514;-75
2023/06/18 02:01:02;;;;;;;9.43;6.97;;;;;;;;;;4990247;28;20026;-75
2023/06/18 02:03:28;;;;;;;9.27;7.28;;;;;;;;;;4992784;28;20422;-75
2023/06/18 02:05:54;;;;;;;9.90;7.15;;;;;;;;;;4989269;28;20066;-75
2023/06/18 02:08:20;;;;;;;10.25;7.55;;;;;;;;;;4987328;28;20030;-75
2023/06/18 02:10:46;;;;;;;7.85;7.00;;;;;;;;;;4991658;28;20578;-75
2023/06/18 02:13:12;;;;;;;9.45;6.70;;;;;;;;;;4992575;28;20045;-75
2023/06/18 02:15:40;;;;;;;8.77;7.07;;;;;;;;;;4989202;28;20030;-74
2023/06/18 02:18:06;;;;;;;9.90;6.90;;;;;;;;;;4992042;28;20061;-74
2023/06/18 02:20:34;;;;;;;8.30;7.00;;;;;;;;;;4989205;28;20014;-75
2023/06/18 02:23:00;;;;;;;9.38;7.15;;;;;;;;;;4986545;28;20108;-75
2023/06/18 02:25:29;;;;;;;8.20;6.50;;;;;;;;;;4996392;28;20440;-75
2023/06/18 02:28:01;;;;;;;8.15;7.03;;;;;;;;;;4985785;28;20105;-75
2023/06/18 02:30:31;;;;;;;10.05;6.90;;;;;;;;;;4993237;28;20033;-75
2023/06/18 02:33:06;;;;;;;8.38;6.85;;;;;;;;;;4994788;28;20053;-74
2023/06/18 02:35:32;;;;;;;8.63;6.40;;;;;;;;;;4993701;28;20077;-75
2023/06/18 02:37:58;;;;;;;7.40;6.00;;;;;;;;;;4989587;28;20022;-75
2023/06/18 02:40:25;;;;;;;7.95;6.63;;;;;;;;;;4973852;28;20404;-75
2023/06/18 02:42:52;;;;;;;7.05;6.05;;;;;;;;;;4969034;28;20049;-75
2023/06/18 02:45:21;;;;;;;8.18;6.95;;;;;;;;;;4989196;28;20052;-74
2023/06/18 02:47:49;;;;;;;8.27;6.70;;;;;;;;;;4982832;28;20026;-75
2023/06/18 02:50:19;;;;;;;8.20;6.85;;;;;;;;;;5005891;28;20054;-75
2023/06/18 02:52:46;;;;;;;8.68;7.10;;;;;;;;;;4991493;28;20034;-74
2023/06/18 02:55:13;;;;;;;8.02;6.82;;;;;;;;;;4985805;28;20042;-74
2023/06/18 02:57:40;;;;;;;8.32;6.10;;;;;;;;;;4987926;28;20045;-75
2023/06/18 03:00:12;;;;;;;7.25;6.53;;;;;;;;;;4987597;28;20026;-75
2023/06/18 03:02:41;;;;;;;8.68;7.05;;;;;;;;;;5002646;28;20118;-74
2023/06/18 03:05:11;;;;;;;9.10;6.88;;;;;;;;;;4992106;28;20580;-74
2023/06/18 03:07:37;;;;;;;7.20;6.40;;;;;;;;;;4991813;28;20121;-74
2023/06/18 03:10:03;;;;;;;10.63;7.15;;;;;;;;;;4987254;28;20376;-74
2023/06/18 03:12:31;;;;;;;7.97;6.38;;;;;;;;;;4989724;28;20041;-74
2023/06/18 03:14:59;;;;;;;8.73;6.13;;;;;;;;;;4990219;28;20082;-75
2023/06/18 03:17:27;;;;;;;8.98;6.68;;;;;;;;;;4990922;28;20117;-74
2023/06/18 03:19:53;;;;;;;9.05;6.95;;;;;;;;;;4991413;28;20430;-75
2023/06/18 03:22:20;;;;;;;8.93;6.97;;;;;;;;;;4991721;28;20034;-75
2023/06/18 03:24:46;;;;;;;8.48;6.22;;;;;;;;;;4989147;28;20026;-74
2023/06/18 03:27:13;;;;;;;7.90;6.20;;;;;;;;;;4988171;28;20389;-75
2023/06/18 03:29:39;;;;;;;6.85;5.82;;;;;;;;;;4999871;28;20100;-75
2023/06/18 03:32:06;;;;;;;8.15;6.43;;;;;;;;;;4992507;28;20525;-75
2023/06/18 03:34:35;;;;;;;7.28;6.43;;;;;;;;;;4994503;28;20402;-75
2023/06/18 03:37:03;;;;;;;6.95;6.25;;;;;;;;;;4974221;28;20037;-74
2023/06/18 03:39:31;;;;;;;8.52;6.60;;;;;;;;;;4978575;28;20120;-74
2023/06/18 03:41:57;;;;;;;8.55;6.80;;;;;;;;;;4984946;28;20469;-75
2023/06/18 03:44:23;;;;;;;8.15;6.50;;;;;;;;;;4977302;28;20076;-74
2023/06/18 03:46:50;;;;;;;8.40;6.93;;;;;;;;;;4985755;28;20489;-75
2023/06/18 03:49:16;;;;;;;8.73;6.93;;;;;;;;;;4985204;28;20019;-75
2023/06/18 03:51:42;;;;;;;8.15;6.45;;;;;;;;;;4992180;28;20040;-74
2023/06/18 03:54:08;;;;;;;7.47;6.68;;;;;;;;;;4989271;28;20031;-74
2023/06/18 03:56:34;;;;;;;8.07;6.45;;;;;;;;;;4992001;28;20027;-75
2023/06/18 03:59:02;;;;;;;9.25;6.55;;;;;;;;;;4997938;28;20092;-74
2023/06/18 04:01:28;;;;;;;9.07;6.85;;;;;;;;;;4994537;28;20034;-74
2023/06/18 04:03:56;;;;;;;10.68;7.00;;;;;;;;;;4999081;28;20117;-74
2023/06/18 04:06:22;;;;;;;9.02;6.18;;;;;;;;;;4976926;28;20491;-75
2023/06/18 04:08:48;;;;;;;8.82;6.82;;;;;;;;;;4992400;28;20432;-75
2023/06/18 04:11:14;;;;;;;8.98;6.78;;;;;;;;;;4991342;28;20105;-75
2023/06/18 04:13:41;;;;;;;8.75;6.88;;;;;;;;;;4985958;28;20049;-74
2023/06/18 04:16:09;;;;;;;8.32;6.90;;;;;;;;;;4991341;28;20045;-74
2023/06/18 04:18:35;;;;;;;10.00;7.45;;;;;;;;;;4989630;28;20393;-74
2023/06/18 04:21:02;;;;;;;7.78;6.88;;;;;;;;;;5025685;28;20491;-76
2023/06/18 04:23:32;;;;;;;10.02;7.05;;;;;;;;;;4991227;28;20026;-74
2023/06/18 04:25:58;;;;;;;9.75;6.53;;;;;;;;;;5000200;28;20031;-75
2023/06/18 04:28:23;;;;;;;8.75;7.20;;;;;;;;;;4988870;28;20031;-75
2023/06/18 04:30:49;;;;;;;9.88;7.45;;;;;;;;;;4998208;28;20087;-74
2023/06/18 04:33:16;;;;;;;10.02;7.45;;;;;;;;;;4995609;28;20026;-74
2023/06/18 04:35:45;;;;;;;7.65;6.85;;;;;;;;;;4993858;28;20122;-74
2023/06/18 04:38:11;;;;;;;9.50;6.70;;;;;;;;;;4988951;28;20030;-75
2023/06/18 04:40:38;;;;;;;8.25;6.97;;;;;;;;;;4994981;28;20121;-73
2023/06/18 04:43:05;;;;;;;7.57;6.72;;;;;;;;;;4998341;28;20033;-74
2023/06/18 04:45:36;;;;;;;7.45;6.13;;;;;;;;;;4992683;28;20081;-74
2023/06/18 04:48:02;;;;;;;8.45;6.75;;;;;;;;;;4997037;28;20037;-75
2023/06/18 04:50:28;;;;;;;9.90;6.95;;;;;;;;;;5000365;28;20105;-75
2023/06/18 04:52:55;;;;;;;10.20;6.95;;;;;;;;;;4993975;28;20042;-75
2023/06/18 04:55:23;;;;;;;8.40;7.15;;;;;;;;;;4989434;28;20099;-75
2023/06/18 04:57:52;;;;;;;9.73;7.00;;;;;;;;;;4983055;28;20054;-75
2023/06/18 05:00:20;;;;;;;9.90;6.65;;;;;;;;;;4991323;28;20065;-74
2023/06/18 05:02:50;;;;;;;8.63;6.85;;;;;;;;;;5001559;28;20106;-75
2023/06/18 05:05:17;;;;;;;8.82;7.07;;;;;;;;;;4978271;28;20039;-75
2023/06/18 05:07:44;;;;;;;8.20;6.85;;;;;;;;;;4992789;28;20025;-75
2023/06/18 05:10:20;;;;;;;10.48;6.70;;;;;;;;;;4991048;28;20493;-76
2023/06/18 05:12:46;;;;;;;8.75;6.93;;;;;;;;;;4993063;28;20034;-77
2023/06/18 05:15:12;;;;;;;9.23;6.65;;;;;;;;;;4987544;28;20543;-75
2023/06/18 05:17:38;;;;;;;7.78;6.65;;;;;;;;;;5001304;28;20125;-75
2023/06/18 05:20:08;;;;;;;10.15;6.65;;;;;;;;;;4988647;28;20034;-75
2023/06/18 05:22:35;;;;;;;7.93;6.40;;;;;;;;;;4990086;28;20038;-75
2023/06/18 05:25:01;;;;;;;10.13;6.30;;;;;;;;;;4988179;28;20035;-76
2023/06/18 05:27:28;;;;;;;7.28;6.22;;;;;;;;;;5027564;28;20031;-76
2023/06/18 05:29:56;;;;;;;6.78;6.07;;;;;;;;;;4990022;28;20029;-75
2023/06/18 05:32:22;;;;;;;10.10;6.35;;;;;;;;;;4994862;28;20034;-76
2023/06/18 05:34:48;;;;;;;8.63;5.68;;;;;;;;;;4992199;28;20026;-76
2023/06/18 05:37:14;;;;;;;9.05;6.15;;;;;;;;;;5006032;28;20197;-75
2023/06/18 05:39:40;;;;;;;6.95;5.93;;;;;;;;;;4994630;28;20113;-75
2023/06/18 05:42:08;;;;;;;6.50;5.25;;;;;;;;;;4988958;28;20345;-76
2023/06/18 05:44:35;;;;;;;7.03;5.65;;;;;;;;;;4983183;28;20030;-75
2023/06/18 05:47:01;;;;;;;6.32;4.93;;;;;;;;;;4991894;28;20069;-77
2023/06/18 05:49:28;;;;;;;10.07;5.90;;;;;;;;;;4990804;28;20488;-75
2023/06/18 05:51:54;;;;;;;6.78;4.78;;;;;;;;;;4992926;28;20053;-76
2023/06/18 05:54:20;;;;;;;6.72;5.30;;;;;;;;;;4974949;28;20477;-76
2023/06/18 05:56:47;;;;;;;6.85;4.80;;;;;;;;;;5012058;28;20026;-75
2023/06/18 05:59:13;;;;;;;5.38;4.40;;;;;;;;;;4974902;28;20022;-76
2023/06/18 06:01:44;;;;;;;4.95;4.40;;;;;;;;;;4970621;28;20556;-75
2023/06/18 06:04:10;;;;;;;4.95;4.00;;;;;;;;;;4989847;28;20113;-76
2023/06/18 06:06:36;;;;;;;8.88;4.68;;;;;;;;;;4993766;28;20092;-77
2023/06/18 06:09:03;;;;;;;5.78;3.90;;;;;;;;;;4991505;28;20037;-77
2023/06/18 06:11:32;;;;;;;5.25;3.90;;;;;;;;;;4985076;28;20023;-75
2023/06/18 06:13:58;;;;;;;5.22;3.63;;;;;;;;;;4988048;28;20109;-75
2023/06/18 06:16:24;;;;;;;4.30;3.58;;;;;;;;;;4997322;28;20125;-76
2023/06/18 06:18:50;;;;;;;5.68;3.50;;;;;;;;;;4991012;28;20134;-76
2023/06/18 06:21:16;;;;;;;6.03;3.60;;;;;;;;;;4990771;28;20038;-75
2023/06/18 06:23:42;;;;;;;3.90;3.50;;;;;;;;;;4992305;28;20562;-75
2023/06/18 06:26:09;;;;;;;3.85;3.13;;;;;;;;;;4986222;28;20555;-76
2023/06/18 06:28:36;;;;;;;4.55;3.70;;;;;;;;;;4994794;28;20041;-76
2023/06/18 06:31:02;;;;;;;4.90;3.60;;;;;;;;;;4993673;28;20034;-76
2023/06/18 06:33:29;;;;;;;5.47;3.53;;;;;;;;;;4977002;28;20068;-75
2023/06/18 06:35:55;;;;;;;4.88;3.67;;;;;;;;;;4997063;28;20022;-75
2023/06/18 06:38:21;;;;;;;4.45;3.85;;;;;;;;;;4990642;28;20058;-76
2023/06/18 06:40:47;;;;;;;5.32;3.97;;;;;;;;;;4989966;28;20026;-76
2023/06/18 06:43:13;;;;;;;6.25;4.43;;;;;;;;;;4991615;28;20038;-76
2023/06/18 06:45:56;;;;;;;5.82;4.25;;;;;;;;;;4993355;28;20212;-75
2023/06/18 06:48:42;;;;;;;7.22;3.80;;;;;;;;;;4979968;28;20069;-76
2023/06/18 06:51:28;;;;;;;4.65;3.92;;;;;;;;;;4988667;28;20514;-75
2023/06/18 06:54:05;;;;;;;11.23;4.17;;;;;;;;;;4995738;28;20042;-75
2023/06/18 06:56:32;;;;;;;5.88;3.92;;;;;;;;;;4997676;28;20035;-75
2023/06/18 06:58:58;;;;;;;10.88;4.63;;;;;;;;;;4998967;28;20027;-76
2023/06/18 07:01:24;;;;;;;8.30;4.20;;;;;;;;;;4979384;28;20034;-76
2023/06/18 07:03:50;;;;;;;5.65;4.28;;;;;;;;;;4986031;28;20037;-75
2023/06/18 07:06:16;;;;;;;5.85;4.13;;;;;;;;;;5003000;28;20057;-76
2023/06/18 07:08:43;;;;;;;7.95;4.32;;;;;;;;;;4990634;28;20050;-75
2023/06/18 07:11:10;;;;;;;11.80;4.80;;;;;;;;;;4984144;28;20535;-75
2023/06/18 07:13:36;;;;;;;8.10;4.30;;;;;;;;;;4991021;28;20022;-76
2023/06/18 07:16:02;;;;;;;5.55;3.90;;;;;;;;;;4979527;28;20046;-75
2023/06/18 07:18:29;;;;;;;5.13;3.95;;;;;;;;;;4992043;28;20045;-74
2023/06/18 07:20:55;;;;;;;8.60;3.95;;;;;;;;;;4986892;28;20121;-75
2023/06/18 07:23:21;;;;;;;4.47;4.03;;;;;;;;;;4995666;28;20038;-75
2023/06/18 07:25:47;;;;;;;9.52;3.97;;;;;;;;;;4990862;28;20027;-76
2023/06/18 07:28:13;;;;;;;6.18;4.40;;;;;;;;;;4990479;28;20101;-75
2023/06/18 07:30:38;;;;;;;6.47;4.10;;;;;;;;;;4972936;28;20041;-74
2023/06/18 07:33:04;;;;;;;4.20;3.53;;;;;;;;;;4990337;28;20018;-74
2023/06/18 07:35:30;;;;;;;6.18;3.90;;;;;;;;;;4991746;28;20559;-73
2023/06/18 07:37:56;;;;;;;5.65;3.30;;;;;;;;;;4998193;28;20073;-74
2023/06/18 07:40:22;;;;;;;4.60;3.60;;;;;;;;;;4992232;28;20055;-74
2023/06/18 07:42:47;;;;;;;8.57;3.92;;;;;;;;;;4993174;28;20034;-74
2023/06/18 07:45:13;;;;;;;7.93;3.40;;;;;;;;;;4991918;28;20471;-74
2023/06/18 07:47:39;;;;;;;4.18;3.60;;;;;;;;;;4991561;28;20057;-74
2023/06/18 07:50:07;;;;;;;5.10;3.67;;;;;;;;;;4982301;28;20436;-74
2023/06/18 07:52:32;;;;;;;12.23;4.30;;;;;;;;;;4991114;28;20588;-73
2023/06/18 07:54:58;;;;;;;7.50;4.07;;;;;;;;;;4988303;28;20134;-73
2023/06/18 07:57:24;;;;;;;7.60;4.25;;;;;;;;;;4983430;28;20069;-75
2023/06/18 07:59:49;;;;;;;8.85;3.90;;;;;;;;;;4987186;28;20041;-73
2023/06/18 08:02:15;;;;;;;11.30;3.92;;;;;;;;;;4993295;28;20085;-74
2023/06/18 08:04:41;;;;;;;3.95;3.42;;;;;;;;;;4990022;28;20038;-74
2023/06/18 08:07:07;;;;;;;5.32;3.67;;;;;;;;;;4989565;28;20098;-74
2023/06/18 08:09:33;;;;;;;6.93;3.90;;;;;;;;;;5001137;28;20508;-74
2023/06/18 08:11:59;;;;;;;4.18;3.70;;;;;;;;;;4993660;28;20038;-73
2023/06/18 08:14:26;;;;;;;4.97;3.92;;;;;;;;;;4994998;28;20030;-73
2023/06/18 08:16:52;;;;;;;5.15;3.72;;;;;;;;;;4992626;28;20541;-74
2023/06/18 08:19:18;;;;;;;5.63;3.60;;;;;;;;;;4996544;28;20026;-74
2023/06/18 08:21:43;;;;;;;5.53;3.95;;;;;;;;;;4993620;28;20101;-74
2023/06/18 08:24:09;;;;;;;4.30;3.28;;;;;;;;;;4992991;28;20742;-74
2023/06/18 08:26:35;;;;;;;5.15;3.65;;;;;;;;;;5003882;28;20030;-73
2023/06/18 08:29:01;;;;;;;5.07;3.97;;;;;;;;;;4998519;28;20462;-75
2023/06/18 08:31:27;;;;;;;5.95;4.25;;;;;;;;;;4999493;28;20031;-75
2023/06/18 08:33:52;;;;;;;7.50;3.85;;;;;;;;;;5000029;28;20040;-75
2023/06/18 08:36:22;;;;;;;5.80;4.22;;;;;;;;;;5000539;28;20026;-72
2023/06/18 08:38:49;;;;;;;6.78;4.43;;;;;;;;;;4992981;28;20068;-73
2023/06/18 08:41:15;;;;;;;5.28;4.55;;;;;;;;;;5000696;28;20033;-72
2023/06/18 08:43:42;;;;;;;6.07;4.05;;;;;;;;;;4989648;28;20046;-75
2023/06/18 08:46:14;;;;;;;5.38;4.18;;;;;;;;;;4997623;28;20029;-74
2023/06/18 08:48:48;;;;;;;7.65;4.30;;;;;;;;;;4999033;28;20069;-74
2023/06/18 08:51:16;;;;;;;6.20;4.05;;;;;;;;;;5002476;28;20027;-73
2023/06/18 08:54:17;;;;;;;6.80;4.30;;;;;;;;;;4988804;28;20168;-74
2023/06/18 08:56:45;;;;;;;6.43;4.30;;;;;;;;;;4997443;28;20431;-74
2023/06/18 08:59:12;;;;;;;6.22;4.47;;;;;;;;;;4989831;28;20032;-73
2023/06/18 09:01:38;;;;;;;5.68;4.10;;;;;;;;;;4992844;28;20452;-74
2023/06/18 09:04:05;;;;;;;6.65;4.25;;;;;;;;;;4988101;28;20066;-73
2023/06/18 09:06:32;;;;;;;6.00;3.80;;;;;;;;;;4991081;28;20076;-74
2023/06/18 09:09:02;;;;;;;5.93;3.90;;;;;;;;;;4991258;28;20502;-75
2023/06/18 09:11:28;;;;;;;5.25;3.90;;;;;;;;;;4994800;28;20381;-73
2023/06/18 09:13:53;;;;;;;6.35;3.60;;;;;;;;;;4987809;28;20121;-76
2023/06/18 09:16:19;;;;;;;6.13;3.80;;;;;;;;;;4983273;28;20049;-75
2023/06/18 09:18:45;;;;;;;9.23;3.42;;;;;;;;;;4985032;28;20038;-73
2023/06/18 09:21:40;;;;;;;4.85;3.70;;;;;;;;;;4989635;28;20038;-74
2023/06/18 09:24:07;;;;;;;8.68;3.67;;;;;;;;;;4992360;28;20056;-75
2023/06/18 09:26:34;;;;;;;5.03;3.50;;;;;;;;;;4997698;28;20038;-74
2023/06/18 09:29:05;;;;;;;6.38;3.90;;;;;;;;;;5005391;28;20017;-74
2023/06/18 09:31:31;;;;;;;6.57;3.55;;;;;;;;;;5000762;28;20550;-80
2023/06/18 09:33:57;;;;;;;8.80;3.80;;;;;;;;;;4988995;28;20025;-75
2023/06/18 09:36:26;;;;;;;4.93;3.78;;;;;;;;;;5004536;28;20030;-75
2023/06/18 09:38:53;;;;;;;4.72;3.03;;;;;;;;;;4991653;28;20391;-75
2023/06/18 09:41:20;;;;;;;8.60;3.08;;;;;;;;;;4985785;28;20061;-74
2023/06/18 09:43:48;;;;;;;5.75;3.30;;;;;;;;;;4989218;28;20022;-75
2023/06/18 09:46:16;;;;;;;4.70;3.20;;;;;;;;;;5000847;28;20030;-75
2023/06/18 09:48:46;;;;;;;5.05;3.60;;;;;;;;;;4993394;28;20022;-75
2023/06/18 09:51:17;;;;;;;4.38;3.28;;;;;;;;;;4994034;28;20092;-75
2023/06/18 09:53:44;;;;;;;6.32;3.30;;;;;;;;;;4996787;28;20065;-76
2023/06/18 09:56:16;;;;;;;4.63;3.30;;;;;;;;;;4988016;28;20035;-74
2023/06/18 09:58:46;;;;;;;;;;;;;;;;;;4996013;28;20041;-74
2023/06/18 10:01:12;;;;;;;4.90;2.90;;;;;;;;;;4991155;28;19936;-75
2023/06/18 10:03:38;;;;;;;4.20;3.30;;;;;;;;;;4986750;28;20471;-74
2023/06/18 10:06:15;;;;;;;6.47;3.40;;;;;;;;;;4998003;28;20566;-74
2023/06/18 10:08:53;;;;;;;5.40;2.97;;;;;;;;;;4997656;28;20038;-75
2023/06/18 10:11:21;;;;;;;3.88;2.90;;;;;;;;;;4994997;28;20078;-74
2023/06/18 10:13:53;;;;;;;3.35;2.90;;;;;;;;;;4995002;28;20192;-75
2023/06/18 10:16:20;;;;;;;3.88;3.05;;;;;;;;;;4990027;28;20034;-74
2023/06/18 10:19:23;;;;;;;4.22;2.95;;;;;;;;;;4995400;28;20065;-75
2023/06/18 10:22:00;;;;;;;3.92;3.10;;;;;;;;;;4998770;28;20042;-74
2023/06/18 10:24:40;;;;;;;4.90;3.75;;;;;;;;;;4997434;28;20065;-74
2023/06/18 10:27:07;;;;;;;10.73;4.10;;;;;;;;;;4985872;28;20555;-75
2023/06/18 10:29:33;;;;;;;8.88;4.03;;;;;;;;;;5002094;28;20025;-75
2023/06/18 10:32:04;;;;;;;9.13;4.72;;;;;;;;;;4995722;28;20026;-75
2023/06/18 10:34:31;;;;;;;5.50;4.30;;;;;;;;;;4988424;28;20038;-74
2023/06/18 10:37:00;;;;;;;5.05;3.75;;;;;;;;;;5000789;28;20045;-75
2023/06/18 10:39:27;;;;;;;4.35;3.60;;;;;;;;;;4983133;28;20504;-75
2023/06/18 10:41:54;;;;;;;11.68;4.55;;;;;;;;;;4992286;28;20034;-76
2023/06/18 10:44:52;;;;;;;7.00;3.92;;;;;;;;;;4991081;28;20540;-73
2023/06/18 10:47:22;;;;;;;4.43;3.50;;;;;;;;;;4988905;28;20046;-75
2023/06/18 10:50:00;;;;;;;5.82;4.53;;;;;;;;;;4989557;28;20038;-75
2023/06/18 10:52:37;;;;;;;4.28;3.42;;;;;;;;;;4994954;28;20455;-74
2023/06/18 10:55:20;;;;;;;3.83;3.13;;;;;;;;;;4994552;28;20093;-74
2023/06/18 10:58:03;;;;;;;8.32;3.70;;;;;;;;;;4991924;28;20515;-74
2023/06/18 11:00:35;;;;;;;17.23;11.95;;;;;;;;;;4994992;28;20061;-73
2023/06/18 11:03:02;;;;;;;4.65;3.92;;;;;;;;;;4991183;28;20070;-74
2023/06/18 11:05:36;;;;;;;4.80;3.67;;;;;;;;;;4995072;28;20038;-73
2023/06/18 11:08:05;;;;;;;5.22;4.00;;;;;;;;;;4991307;28;20092;-74
2023/06/18 11:10:41;;;;;;;5.30;3.63;;;;;;;;;;4988996;28;20527;-75
2023/06/18 11:13:11;;;;;;;4.63;3.72;;;;;;;;;;4994660;28;20038;-74
2023/06/18 11:15:52;;;;;;;4.70;3.78;;;;;;;;;;4988752;28;20031;-73
2023/06/18 11:18:21;;;;;;;11.65;7.03;;;;;;;;;;4991259;28;20069;-74
2023/06/18 11:20:47;;;;;;;5.28;4.00;;;;;;;;;;4992632;28;20113;-73
2023/06/18 11:23:15;;;;;;;5.57;4.35;;;;;;;;;;4992865;28;20036;-73
2023/06/18 11:25:41;;;;;;;6.30;3.88;;;;;;;;;;4988126;28;20476;-73
2023/06/18 11:28:08;;;;;;;7.05;4.90;;;;;;;;;;4997595;28;20113;-74
2023/06/18 11:30:36;;;;;;;8.10;5.15;;;;;;;;;;4995870;28;20524;-74
2023/06/18 11:33:02;;;;;;;7.65;5.25;;;;;;;;;;4992939;28;20038;-73
2023/06/18 11:35:30;;;;;;;5.40;4.43;;;;;;;;;;5000255;28;20033;-74
2023/06/18 11:37:58;;;;;;;5.07;4.57;;;;;;;;;;4999951;28;20127;-75
2023/06/18 11:40:24;;;;;;;4.40;3.75;;;;;;;;;;5000469;28;20022;-74
2023/06/18 11:42:51;;;;;;;6.35;4.25;;;;;;;;;;5000710;28;20034;-73
2023/06/18 11:45:19;;;;;;;5.70;4.57;;;;;;;;;;4996577;28;20405;-75
2023/06/18 11:47:47;;;;;;;8.90;5.15;;;;;;;;;;5005261;28;20034;-74
2023/06/18 11:50:14;;;;;;;6.95;4.70;;;;;;;;;;4993804;28;20053;-74
2023/06/18 11:52:40;;;;;;;6.88;4.80;;;;;;;;;;4998350;28;20034;-73
2023/06/18 11:55:06;;;;;;;6.43;4.40;;;;;;;;;;4995574;28;20030;-74
2023/06/18 11:57:32;;;;;;;6.68;4.03;;;;;;;;;;4998526;28;20033;-74
2023/06/18 11:59:59;;;;;;;4.07;3.55;;;;;;;;;;4993434;28;20033;-74
2023/06/18 12:02:26;;;;;;;4.38;3.90;;;;;;;;;;4979961;28;20097;-74
2023/06/18 12:05:03;;;;;;;5.38;4.18;;;;;;;;;;4996327;28;20026;-74
2023/06/18 12:07:30;;;;;;;6.38;3.85;;;;;;;;;;4996513;28;20035;-75
2023/06/18 12:09:58;;;;;;;5.97;4.20;;;;;;;;;;4998714;28;20031;-75
2023/06/18 12:12:37;;;;;;;5.38;4.82;;;;;;;;;;4994005;28;20036;-74
2023/06/18 12:15:20;;;;;;;6.57;4.47;;;;;;;;;;4998026;28;20444;-75
2023/06/18 12:18:10;;;;;;;5.75;4.68;;;;;;;;;;4997589;28;20042;-75
2023/06/18 12:20:35;;;;;;;7.07;5.00;;;;;;;;;;4998947;28;20041;-76
2023/06/18 12:23:04;;;;;;;5.47;4.53;;;;;;;;;;4999555;28;20022;-75
2023/06/18 12:25:31;;;;;;;6.05;4.25;;;;;;;;;;4994364;28;20500;-74
2023/06/18 12:27:59;;;;;;;5.05;4.50;;;;;;;;;;4995439;28;20026;-74
2023/06/18 12:30:30;;;;;;;6.03;5.40;;;;;;;;;;4995026;28;20030;-75
2023/06/18 12:33:10;;;;;;;8.32;5.40;;;;;;;;;;4989639;28;20507;-75
2023/06/18 12:35:40;;;;;;;11.52;6.88;;;;;;;;;;4993029;28;20034;-75
2023/06/18 12:38:10;;;;;;;8.00;5.03;;;;;;;;;;4992508;28;20177;-75
2023/06/18 12:40:50;;;;;;;6.15;5.22;;;;;;;;;;4994653;28;20027;-74
2023/06/18 12:43:18;;;;;;;5.40;4.90;;;;;;;;;;4987570;28;20409;-75
2023/06/18 12:45:47;;;;;;;7.50;5.40;;;;;;;;;;4992331;28;20494;-75
2023/06/18 12:48:24;;;;;;;9.88;5.18;;;;;;;;;;4990027;28;20507;-74
2023/06/18 12:50:54;;;;;;;6.90;5.78;;;;;;;;;;4998901;28;20061;-74
2023/06/18 12:53:22;;;;;;;5.70;5.10;;;;;;;;;;4994954;28;20034;-75
2023/06/18 12:55:50;;;;;;;7.38;5.60;;;;;;;;;;4996034;28;20112;-73
2023/06/18 12:58:23;;;;;;;9.13;5.80;;;;;;;;;;4994027;28;20153;-75
2023/06/18 13:00:53;;;;;;;9.07;6.43;;;;;;;;;;4987765;28;20503;-75
2023/06/18 13:03:20;;;;;;;7.07;6.20;;;;;;;;;;4994051;28;20033;-74
2023/06/18 13:05:47;;;;;;;7.15;5.40;;;;;;;;;;4977722;28;20034;-74
2023/06/18 13:08:17;;;;;;;6.32;5.43;;;;;;;;;;4991850;28;20034;-76
2023/06/18 13:10:48;;;;;;;10.60;4.97;;;;;;;;;;4996759;28;20028;-75
2023/06/18 13:13:16;;;;;;;6.60;5.05;;;;;;;;;;4990704;28;20112;-75
2023/06/18 13:15:43;;;;;;;8.15;4.65;;;;;;;;;;4988416;28;20092;-75
2023/06/18 13:18:11;;;;;;;6.45;5.18;;;;;;;;;;4991501;28;20038;-75
2023/06/18 13:20:37;;;;;;;7.18;5.40;;;;;;;;;;4991793;28;20111;-75
2023/06/18 13:23:05;;;;;;;7.07;5.28;;;;;;;;;;4988538;28;20057;-75
2023/06/18 13:25:32;;;;;;;6.70;5.00;;;;;;;;;;4989343;28;20109;-75
2023/06/18 13:27:59;;;;;;;6.95;5.50;;;;;;;;;;4993787;28;20116;-74
2023/06/18 13:30:25;;;;;;;6.03;4.65;;;;;;;;;;4990146;28;20036;-75
2023/06/18 13:32:51;;;;;;;6.53;4.72;;;;;;;;;;4999411;28;20122;-75
2023/06/18 13:35:19;;;;;;;10.65;4.47;;;;;;;;;;4986199;28;20034;-76
2023/06/18 13:37:45;;;;;;;5.55;4.60;;;;;;;;;;4993669;28;20034;-76
2023/06/18 13:40:11;;;;;;;6.72;5.43;;;;;;;;;;4990289;28;20033;-75
2023/06/18 13:42:37;;;;;;;5.88;5.28;;;;;;;;;;4989254;28;20030;-76
2023/06/18 13:45:04;;;;;;;6.75;5.25;;;;;;;;;;4991572;28;20033;-75
2023/06/18 13:47:32;;;;;;;5.93;5.32;;;;;;;;;;4991889;28;20033;-75
2023/06/18 13:49:57;;;;;;;5.85;4.90;;;;;;;;;;4990532;28;20474;-74
2023/06/18 13:52:23;;;;;;;6.88;4.95;;;;;;;;;;4998497;28;20118;-75
2023/06/18 13:54:51;;;;;;;6.70;5.10;;;;;;;;;;5008928;28;20015;-74
2023/06/18 13:57:18;;;;;;;6.82;4.80;;;;;;;;;;5002251;28;20034;-75
2023/06/18 13:59:45;;;;;;;8.10;4.78;;;;;;;;;;4990490;28;20431;-75
2023/06/18 14:02:12;;;;;;;5.68;4.97;;;;;;;;;;4992993;28;20030;-75
2023/06/18 14:04:45;;;;;;;8.38;5.60;;;;;;;;;;4990517;28;20494;-75
2023/06/18 14:07:12;;;;;;;9.13;4.93;;;;;;;;;;4999629;28;20042;-74
2023/06/18 14:09:37;;;;;;;6.38;5.13;;;;;;;;;;4987717;28;20018;-75
2023/06/18 14:12:06;;;;;;;5.78;5.18;;;;;;;;;;4998711;28;20037;-75
2023/06/18 14:14:33;;;;;;;7.22;5.47;;;;;;;;;;4992939;28;20022;-74
2023/06/18 14:16:59;;;;;;;6.65;4.90;;;;;;;;;;4996425;28;20097;-75
2023/06/18 14:19:25;;;;;;;5.82;5.20;;;;;;;;;;4959158;28;20106;-75
2023/06/18 14:21:52;;;;;;;6.85;5.35;;;;;;;;;;4988434;28;20432;-74
2023/06/18 14:24:17;;;;;;;7.97;5.20;;;;;;;;;;4989283;28;20026;-76
2023/06/18 14:26:43;;;;;;;6.88;5.10;;;;;;;;;;4992495;28;20080;-75
2023/06/18 14:29:09;;;;;;;6.75;5.22;;;;;;;;;;4995778;28;20019;-74
2023/06/18 14:31:35;;;;;;;10.45;5.28;;;;;;;;;;4990401;28;20037;-75
2023/06/18 14:34:01;;;;;;;7.88;5.68;;;;;;;;;;4992892;28;20029;-75
2023/06/18 14:36:27;;;;;;;5.40;4.80;;;;;;;;;;4996260;28;20088;-75
2023/06/18 14:38:53;;;;;;;9.15;5.45;;;;;;;;;;4990890;28;20497;-75
2023/06/18 14:41:19;;;;;;;6.53;4.43;;;;;;;;;;4986448;28;20384;-74
2023/06/18 14:43:45;;;;;;;6.13;5.53;;;;;;;;;;4990106;28;20022;-74
2023/06/18 14:46:11;;;;;;;5.07;4.57;;;;;;;;;;4994769;28;20121;-74
2023/06/18 14:48:37;;;;;;;8.73;4.70;;;;;;;;;;4998083;28;20019;-76
2023/06/18 14:51:04;;;;;;;4.82;4.22;;;;;;;;;;4990100;28;20590;-75